sensor_id;sensor_type;location;lat;lon;timestamp;temperature;humidity
25108;DHT22;13090;53.422;7.670;2023-04-08T00:03:29;8.10;82.60
25108;DHT22;13090;53.422;7.670;2023-04-08T00:08:32;8.10;82.00
25108;DHT22;13090;53.422;7.670;2023-04-08T00:13:34;8.10;80.90
25108;DHT22;13090;53.422;7.670;2023-04-08T00:18:38;8.20;82.70
25108;DHT22;13090;53.422;7.670;2023-04-08T00:23:40;8.20;80.20
25108;DHT22;13090;53.422;7.670;2023-04-08T00:28:42;8.30;80.30
25108;DHT22;13090;53.422;7.670;2023-04-08T00:33:45;8.30;82.00
25108;DHT22;13090;53.422;7.670;2023-04-08T00:38:47;8.30;80.10
25108;DHT22;13090;53.422;7.670;2023-04-08T00:43:51;8.40;79.20
25108;DHT22;13090;53.422;7.670;2023-04-08T00:48:55;8.50;78.10
25108;DHT22;13090;53.422;7.670;2023-04-08T00:53:57;8.50;77.20
25108;DHT22;13090;53.422;7.670;2023-04-08T00:59:00;8.60;76.60
25108;DHT22;13090;53.422;7.670;2023-04-08T01:04:09;8.70;76.10
25108;DHT22;13090;53.422;7.670;2023-04-08T01:09:18;8.80;75.60
25108;DHT22;13090;53.422;7.670;2023-04-08T01:14:25;8.90;75.20
25108;DHT22;13090;53.422;7.670;2023-04-08T01:19:35;8.90;75.00
25108;DHT22;13090;53.422;7.670;2023-04-08T01:24:39;8.90;74.70
25108;DHT22;13090;53.422;7.670;2023-04-08T01:29:47;9.00;74.10
25108;DHT22;13090;53.422;7.670;2023-04-08T01:34:50;9.00;74.30
25108;DHT22;13090;53.422;7.670;2023-04-08T01:39:54;9.00;74.20
25108;DHT22;13090;53.422;7.670;2023-04-08T01:45:00;9.00;73.70
25108;DHT22;13090;53.422;7.670;2023-04-08T01:50:04;9.00;73.60
25108;DHT22;13090;53.422;7.670;2023-04-08T01:55:07;9.00;73.40
25108;DHT22;13090;53.422;7.670;2023-04-08T02:00:14;9.00;76.00
25108;DHT22;13090;53.422;7.670;2023-04-08T02:05:18;8.90;74.50
25108;DHT22;13090;53.422;7.670;2023-04-08T02:10:20;8.90;78.20
25108;DHT22;13090;53.422;7.670;2023-04-08T02:15:25;8.80;75.90
25108;DHT22;13090;53.422;7.670;2023-04-08T02:20:36;8.70;78.80
25108;DHT22;13090;53.422;7.670;2023-04-08T02:25:39;8.60;76.50
25108;DHT22;13090;53.422;7.670;2023-04-08T02:30:48;8.60;77.80
25108;DHT22;13090;53.422;7.670;2023-04-08T02:35:51;8.60;77.10
25108;DHT22;13090;53.422;7.670;2023-04-08T02:40:54;8.50;76.40
25108;DHT22;13090;53.422;7.670;2023-04-08T02:45:58;8.50;77.50
25108;DHT22;13090;53.422;7.670;2023-04-08T02:51:00;8.50;77.30
25108;DHT22;13090;53.422;7.670;2023-04-08T02:56:03;8.50;76.20
25108;DHT22;13090;53.422;7.670;2023-04-08T03:01:07;8.60;75.80
25108;DHT22;13090;53.422;7.670;2023-04-08T03:06:10;8.60;75.70
25108;DHT22;13090;53.422;7.670;2023-04-08T03:11:12;8.70;75.20
25108;DHT22;13090;53.422;7.670;2023-04-08T03:16:15;8.80;75.00
25108;DHT22;13090;53.422;7.670;2023-04-08T03:21:18;8.80;74.80
25108;DHT22;13090;53.422;7.670;2023-04-08T03:26:20;8.90;74.60
25108;DHT22;13090;53.422;7.670;2023-04-08T03:31:24;8.90;74.30
25108;DHT22;13090;53.422;7.670;2023-04-08T03:36:26;8.90;74.40
25108;DHT22;13090;53.422;7.670;2023-04-08T03:41:28;9.00;74.00
25108;DHT22;13090;53.422;7.670;2023-04-08T03:46:32;9.00;74.00
25108;DHT22;13090;53.422;7.670;2023-04-08T03:51:34;9.00;74.40
25108;DHT22;13090;53.422;7.670;2023-04-08T03:56:36;9.10;74.50
25108;DHT22;13090;53.422;7.670;2023-04-08T04:01:40;9.10;74.30
25108;DHT22;13090;53.422;7.670;2023-04-08T04:06:43;9.20;74.10
25108;DHT22;13090;53.422;7.670;2023-04-08T04:11:45;9.30;74.10
25108;DHT22;13090;53.422;7.670;2023-04-08T04:16:48;9.40;74.10
25108;DHT22;13090;53.422;7.670;2023-04-08T04:21:50;9.40;74.00
25108;DHT22;13090;53.422;7.670;2023-04-08T04:26:52;9.50;73.80
25108;DHT22;13090;53.422;7.670;2023-04-08T04:31:56;9.50;73.80
25108;DHT22;13090;53.422;7.670;2023-04-08T04:36:58;9.60;73.80
25108;DHT22;13090;53.422;7.670;2023-04-08T04:42:00;9.60;73.60
25108;DHT22;13090;53.422;7.670;2023-04-08T04:47:04;9.70;73.50
25108;DHT22;13090;53.422;7.670;2023-04-08T04:52:06;9.70;73.50
25108;DHT22;13090;53.422;7.670;2023-04-08T04:57:08;9.70;73.30
25108;DHT22;13090;53.422;7.670;2023-04-08T05:02:12;9.80;73.40
25108;DHT22;13090;53.422;7.670;2023-04-08T05:07:14;9.80;73.40
25108;DHT22;13090;53.422;7.670;2023-04-08T05:12:17;9.90;73.30
25108;DHT22;13090;53.422;7.670;2023-04-08T05:17:20;9.90;73.20
25108;DHT22;13090;53.422;7.670;2023-04-08T05:22:23;9.90;72.90
25108;DHT22;13090;53.422;7.670;2023-04-08T05:27:25;9.90;73.00
25108;DHT22;13090;53.422;7.670;2023-04-08T05:32:28;9.90;73.10
25108;DHT22;13090;53.422;7.670;2023-04-08T05:37:31;10.00;72.70
25108;DHT22;13090;53.422;7.670;2023-04-08T05:42:33;9.90;72.60
25108;DHT22;13090;53.422;7.670;2023-04-08T05:47:36;9.80;74.40
25108;DHT22;13090;53.422;7.670;2023-04-08T05:52:41;9.60;73.90
25108;DHT22;13090;53.422;7.670;2023-04-08T05:57:44;9.60;74.70
25108;DHT22;13090;53.422;7.670;2023-04-08T06:02:47;9.60;74.10
25108;DHT22;13090;53.422;7.670;2023-04-08T06:07:50;9.60;74.10
25108;DHT22;13090;53.422;7.670;2023-04-08T06:12:52;9.70;74.10
25108;DHT22;13090;53.422;7.670;2023-04-08T06:17:56;9.80;74.30
25108;DHT22;13090;53.422;7.670;2023-04-08T06:22:59;9.90;74.10
25108;DHT22;13090;53.422;7.670;2023-04-08T06:28:02;9.90;74.00
25108;DHT22;13090;53.422;7.670;2023-04-08T06:33:05;10.00;73.50
25108;DHT22;13090;53.422;7.670;2023-04-08T06:38:07;10.10;74.10
25108;DHT22;13090;53.422;7.670;2023-04-08T06:43:09;10.10;74.10
25108;DHT22;13090;53.422;7.670;2023-04-08T06:48:13;10.20;74.10
25108;DHT22;13090;53.422;7.670;2023-04-08T06:53:15;10.30;74.00
25108;DHT22;13090;53.422;7.670;2023-04-08T06:58:17;10.40;74.00
25108;DHT22;13090;53.422;7.670;2023-04-08T07:03:21;10.50;74.10
25108;DHT22;13090;53.422;7.670;2023-04-08T07:08:25;10.60;74.20
25108;DHT22;13090;53.422;7.670;2023-04-08T07:13:27;10.70;74.10
25108;DHT22;13090;53.422;7.670;2023-04-08T07:18:30;10.90;74.10
25108;DHT22;13090;53.422;7.670;2023-04-08T07:23:34;11.00;73.80
25108;DHT22;13090;53.422;7.670;2023-04-08T07:28:36;11.10;73.40
25108;DHT22;13090;53.422;7.670;2023-04-08T07:33:39;11.20;73.20
25108;DHT22;13090;53.422;7.670;2023-04-08T07:38:41;11.20;73.20
25108;DHT22;13090;53.422;7.670;2023-04-08T07:43:44;11.30;73.20
25108;DHT22;13090;53.422;7.670;2023-04-08T07:48:47;11.30;73.30
25108;DHT22;13090;53.422;7.670;2023-04-08T07:53:50;11.40;73.50
25108;DHT22;13090;53.422;7.670;2023-04-08T07:58:52;11.50;73.30
25108;DHT22;13090;53.422;7.670;2023-04-08T08:03:56;11.50;73.20
25108;DHT22;13090;53.422;7.670;2023-04-08T08:08:59;11.50;73.30
25108;DHT22;13090;53.422;7.670;2023-04-08T08:14:02;11.50;73.10
25108;DHT22;13090;53.422;7.670;2023-04-08T08:19:05;11.50;73.30
25108;DHT22;13090;53.422;7.670;2023-04-08T08:24:07;11.50;73.50
25108;DHT22;13090;53.422;7.670;2023-04-08T08:29:11;11.50;73.60
25108;DHT22;13090;53.422;7.670;2023-04-08T08:34:16;11.60;73.60
25108;DHT22;13090;53.422;7.670;2023-04-08T08:39:18;11.70;73.50
25108;DHT22;13090;53.422;7.670;2023-04-08T08:44:25;11.80;73.30
25108;DHT22;13090;53.422;7.670;2023-04-08T08:49:29;11.80;73.10
25108;DHT22;13090;53.422;7.670;2023-04-08T08:54:31;11.90;73.20
25108;DHT22;13090;53.422;7.670;2023-04-08T08:59:33;11.90;73.10
25108;DHT22;13090;53.422;7.670;2023-04-08T09:04:37;12.00;73.00
25108;DHT22;13090;53.422;7.670;2023-04-08T09:09:47;12.10;73.20
25108;DHT22;13090;53.422;7.670;2023-04-08T09:14:50;12.20;73.40
25108;DHT22;13090;53.422;7.670;2023-04-08T09:20:09;12.40;73.20
25108;DHT22;13090;53.422;7.670;2023-04-08T09:25:22;12.70;73.80
25108;DHT22;13090;53.422;7.670;2023-04-08T09:30:26;13.00;73.20
25108;DHT22;13090;53.422;7.670;2023-04-08T09:35:31;13.10;72.20
25108;DHT22;13090;53.422;7.670;2023-04-08T09:40:34;13.20;71.80
25108;DHT22;13090;53.422;7.670;2023-04-08T09:45:39;13.20;71.60
25108;DHT22;13090;53.422;7.670;2023-04-08T09:50:48;13.20;72.50
25108;DHT22;13090;53.422;7.670;2023-04-08T09:55:55;13.20;71.30
25108;DHT22;13090;53.422;7.670;2023-04-08T10:00:59;13.20;71.20
25108;DHT22;13090;53.422;7.670;2023-04-08T10:06:03;13.10;71.20
25108;DHT22;13090;53.422;7.670;2023-04-08T10:11:09;13.10;71.50
25108;DHT22;13090;53.422;7.670;2023-04-08T10:16:22;13.20;71.30
25108;DHT22;13090;53.422;7.670;2023-04-08T10:21:37;13.30;71.80
25108;DHT22;13090;53.422;7.670;2023-04-08T10:26:40;13.50;71.90
25108;DHT22;13090;53.422;7.670;2023-04-08T10:31:43;13.80;71.50
25108;DHT22;13090;53.422;7.670;2023-04-08T10:36:47;14.00;71.00
25108;DHT22;13090;53.422;7.670;2023-04-08T10:41:51;14.00;70.40
25108;DHT22;13090;53.422;7.670;2023-04-08T10:46:53;14.00;70.60
25108;DHT22;13090;53.422;7.670;2023-04-08T10:51:58;14.10;70.70
25108;DHT22;13090;53.422;7.670;2023-04-08T10:57:00;14.30;71.00
25108;DHT22;13090;53.422;7.670;2023-04-08T11:02:02;14.50;71.00
25108;DHT22;13090;53.422;7.670;2023-04-08T11:07:06;14.70;69.70
25108;DHT22;13090;53.422;7.670;2023-04-08T11:12:09;14.70;68.70
25108;DHT22;13090;53.422;7.670;2023-04-08T11:17:14;14.60;68.90
25108;DHT22;13090;53.422;7.670;2023-04-08T11:22:18;14.60;69.20
25108;DHT22;13090;53.422;7.670;2023-04-08T11:27:22;14.70;69.80
25108;DHT22;13090;53.422;7.670;2023-04-08T11:32:25;14.90;70.00
25108;DHT22;13090;53.422;7.670;2023-04-08T11:37:37;15.10;68.80
25108;DHT22;13090;53.422;7.670;2023-04-08T11:42:40;14.90;68.50
25108;DHT22;13090;53.422;7.670;2023-04-08T11:47:43;14.90;68.60
25108;DHT22;13090;53.422;7.670;2023-04-08T11:52:48;14.70;68.80
25108;DHT22;13090;53.422;7.670;2023-04-08T11:57:50;14.80;69.40
25108;DHT22;13090;53.422;7.670;2023-04-08T12:02:54;14.80;69.30
25108;DHT22;13090;53.422;7.670;2023-04-08T12:07:59;14.70;69.40
25108;DHT22;13090;53.422;7.670;2023-04-08T12:13:15;14.50;70.40
25108;DHT22;13090;53.422;7.670;2023-04-08T12:18:17;14.30;70.30
25108;DHT22;13090;53.422;7.670;2023-04-08T12:23:22;14.10;70.50
25108;DHT22;13090;53.422;7.670;2023-04-08T12:28:28;14.00;71.90
25108;DHT22;13090;53.422;7.670;2023-04-08T12:33:32;14.00;72.10
25108;DHT22;13090;53.422;7.670;2023-04-08T12:38:41;14.10;71.70
25108;DHT22;13090;53.422;7.670;2023-04-08T12:43:46;14.20;72.70
25108;DHT22;13090;53.422;7.670;2023-04-08T12:48:50;14.10;72.20
25108;DHT22;13090;53.422;7.670;2023-04-08T12:54:06;14.30;72.40
25108;DHT22;13090;53.422;7.670;2023-04-08T12:59:10;14.60;71.60
25108;DHT22;13090;53.422;7.670;2023-04-08T13:04:12;14.60;71.30
25108;DHT22;13090;53.422;7.670;2023-04-08T13:09:18;14.70;70.90
25108;DHT22;13090;53.422;7.670;2023-04-08T13:19:24;15.20;71.60
25108;DHT22;13090;53.422;7.670;2023-04-08T13:24:27;15.70;70.70
25108;DHT22;13090;53.422;7.670;2023-04-08T13:29:30;16.10;67.90
25108;DHT22;13090;53.422;7.670;2023-04-08T13:34:32;16.20;68.30
25108;DHT22;13090;53.422;7.670;2023-04-08T13:39:35;16.30;67.80
25108;DHT22;13090;53.422;7.670;2023-04-08T13:44:38;16.40;66.60
25108;DHT22;13090;53.422;7.670;2023-04-08T13:49:40;16.30;66.50
25108;DHT22;13090;53.422;7.670;2023-04-08T13:54:46;16.40;66.60
25108;DHT22;13090;53.422;7.670;2023-04-08T13:59:51;16.30;66.60
25108;DHT22;13090;53.422;7.670;2023-04-08T14:04:54;16.30;66.20
25108;DHT22;13090;53.422;7.670;2023-04-08T14:09:58;16.10;66.70
25108;DHT22;13090;53.422;7.670;2023-04-08T14:15:00;15.90;66.70
25108;DHT22;13090;53.422;7.670;2023-04-08T14:20:03;15.80;67.30
25108;DHT22;13090;53.422;7.670;2023-04-08T14:25:07;15.80;67.40
25108;DHT22;13090;53.422;7.670;2023-04-08T14:30:10;15.70;67.50
25108;DHT22;13090;53.422;7.670;2023-04-08T14:35:12;15.70;68.30
25108;DHT22;13090;53.422;7.670;2023-04-08T14:40:16;15.90;68.20
25108;DHT22;13090;53.422;7.670;2023-04-08T14:45:18;15.90;67.50
25108;DHT22;13090;53.422;7.670;2023-04-08T14:50:21;15.90;68.00
25108;DHT22;13090;53.422;7.670;2023-04-08T14:55:29;16.00;67.50
25108;DHT22;13090;53.422;7.670;2023-04-08T15:00:31;15.90;67.50
25108;DHT22;13090;53.422;7.670;2023-04-08T15:05:34;15.70;68.10
25108;DHT22;13090;53.422;7.670;2023-04-08T15:10:39;15.60;68.40
25108;DHT22;13090;53.422;7.670;2023-04-08T15:15:42;15.60;68.30
25108;DHT22;13090;53.422;7.670;2023-04-08T15:20:44;15.60;68.50
25108;DHT22;13090;53.422;7.670;2023-04-08T15:25:47;15.60;68.90
25108;DHT22;13090;53.422;7.670;2023-04-08T15:30:50;15.70;68.60
25108;DHT22;13090;53.422;7.670;2023-04-08T15:35:52;15.50;68.40
25108;DHT22;13090;53.422;7.670;2023-04-08T15:40:56;15.20;69.00
25108;DHT22;13090;53.422;7.670;2023-04-08T15:45:59;14.90;70.30
25108;DHT22;13090;53.422;7.670;2023-04-08T15:51:05;14.80;70.20
25108;DHT22;13090;53.422;7.670;2023-04-08T15:56:13;14.70;70.30
25108;DHT22;13090;53.422;7.670;2023-04-08T16:01:15;14.70;71.50
25108;DHT22;13090;53.422;7.670;2023-04-08T16:06:18;14.60;71.80
25108;DHT22;13090;53.422;7.670;2023-04-08T16:11:21;14.30;72.90
25108;DHT22;13090;53.422;7.670;2023-04-08T16:16:24;14.20;73.40
25108;DHT22;13090;53.422;7.670;2023-04-08T16:21:26;14.20;73.00
25108;DHT22;13090;53.422;7.670;2023-04-08T16:26:30;14.20;73.80
25108;DHT22;13090;53.422;7.670;2023-04-08T16:31:33;14.00;74.90
25108;DHT22;13090;53.422;7.670;2023-04-08T16:36:38;13.90;75.00
25108;DHT22;13090;53.422;7.670;2023-04-08T16:41:42;13.70;75.60
25108;DHT22;13090;53.422;7.670;2023-04-08T16:46:44;13.70;76.50
25108;DHT22;13090;53.422;7.670;2023-04-08T16:51:46;13.60;75.90
25108;DHT22;13090;53.422;7.670;2023-04-08T16:56:50;13.50;77.20
25108;DHT22;13090;53.422;7.670;2023-04-08T17:01:52;13.50;77.10
25108;DHT22;13090;53.422;7.670;2023-04-08T17:06:54;13.40;77.70
25108;DHT22;13090;53.422;7.670;2023-04-08T17:11:58;13.40;77.30
25108;DHT22;13090;53.422;7.670;2023-04-08T17:17:01;13.40;77.50
25108;DHT22;13090;53.422;7.670;2023-04-08T17:22:04;13.40;77.70
25108;DHT22;13090;53.422;7.670;2023-04-08T17:27:08;13.30;77.80
25108;DHT22;13090;53.422;7.670;2023-04-08T17:32:10;13.30;78.90
25108;DHT22;13090;53.422;7.670;2023-04-08T17:37:12;13.20;79.00
25108;DHT22;13090;53.422;7.670;2023-04-08T17:42:16;13.20;77.90
25108;DHT22;13090;53.422;7.670;2023-04-08T17:47:18;13.10;79.60
25108;DHT22;13090;53.422;7.670;2023-04-08T17:52:21;13.10;79.70
25108;DHT22;13090;53.422;7.670;2023-04-08T17:57:24;13.00;80.00
25108;DHT22;13090;53.422;7.670;2023-04-08T18:02:26;12.90;80.90
25108;DHT22;13090;53.422;7.670;2023-04-08T18:07:29;12.80;80.40
25108;DHT22;13090;53.422;7.670;2023-04-08T18:12:32;12.70;81.20
25108;DHT22;13090;53.422;7.670;2023-04-08T18:17:35;12.70;81.00
25108;DHT22;13090;53.422;7.670;2023-04-08T18:22:37;12.60;81.80
25108;DHT22;13090;53.422;7.670;2023-04-08T18:27:43;12.60;82.20
25108;DHT22;13090;53.422;7.670;2023-04-08T18:32:47;12.50;81.90
25108;DHT22;13090;53.422;7.670;2023-04-08T18:37:49;12.50;81.00
25108;DHT22;13090;53.422;7.670;2023-04-08T18:42:53;12.50;82.00
25108;DHT22;13090;53.422;7.670;2023-04-08T18:47:55;12.50;81.60
25108;DHT22;13090;53.422;7.670;2023-04-08T18:52:57;12.40;81.70
25108;DHT22;13090;53.422;7.670;2023-04-08T18:58:01;12.40;82.30
25108;DHT22;13090;53.422;7.670;2023-04-08T19:03:04;12.40;80.70
25108;DHT22;13090;53.422;7.670;2023-04-08T19:08:10;12.40;80.50
25108;DHT22;13090;53.422;7.670;2023-04-08T19:13:17;12.50;80.90
25108;DHT22;13090;53.422;7.670;2023-04-08T19:18:19;12.40;81.00
25108;DHT22;13090;53.422;7.670;2023-04-08T19:23:22;12.40;81.30
25108;DHT22;13090;53.422;7.670;2023-04-08T19:28:27;12.40;80.40
25108;DHT22;13090;53.422;7.670;2023-04-08T19:33:29;12.30;81.30
25108;DHT22;13090;53.422;7.670;2023-04-08T19:38:32;12.30;80.10
25108;DHT22;13090;53.422;7.670;2023-04-08T19:43:35;12.30;81.20
25108;DHT22;13090;53.422;7.670;2023-04-08T19:48:37;12.20;82.30
25108;DHT22;13090;53.422;7.670;2023-04-08T19:53:39;12.10;82.80
25108;DHT22;13090;53.422;7.670;2023-04-08T19:58:43;12.00;83.30
25108;DHT22;13090;53.422;7.670;2023-04-08T20:03:45;12.00;82.40
25108;DHT22;13090;53.422;7.670;2023-04-08T20:08:48;12.00;81.20
25108;DHT22;13090;53.422;7.670;2023-04-08T20:13:53;12.00;80.60
25108;DHT22;13090;53.422;7.670;2023-04-08T20:18:56;11.90;81.90
25108;DHT22;13090;53.422;7.670;2023-04-08T20:23:58;11.80;80.90
25108;DHT22;13090;53.422;7.670;2023-04-08T20:29:01;11.80;81.70
25108;DHT22;13090;53.422;7.670;2023-04-08T20:34:03;11.70;81.60
25108;DHT22;13090;53.422;7.670;2023-04-08T20:39:09;11.70;80.90
25108;DHT22;13090;53.422;7.670;2023-04-08T20:44:12;11.70;80.60
25108;DHT22;13090;53.422;7.670;2023-04-08T20:49:15;11.70;81.70
25108;DHT22;13090;53.422;7.670;2023-04-08T20:54:17;11.60;81.60
25108;DHT22;13090;53.422;7.670;2023-04-08T20:59:20;11.60;82.10
25108;DHT22;13090;53.422;7.670;2023-04-08T21:04:25;11.50;81.40
25108;DHT22;13090;53.422;7.670;2023-04-08T21:09:29;11.50;82.00
25108;DHT22;13090;53.422;7.670;2023-04-08T21:14:35;11.40;83.20
25108;DHT22;13090;53.422;7.670;2023-04-08T21:19:37;11.30;82.90
25108;DHT22;13090;53.422;7.670;2023-04-08T21:24:39;11.30;82.10
25108;DHT22;13090;53.422;7.670;2023-04-08T21:29:43;11.20;82.20
25108;DHT22;13090;53.422;7.670;2023-04-08T21:34:45;11.20;82.00
25108;DHT22;13090;53.422;7.670;2023-04-08T21:39:47;11.20;82.80
25108;DHT22;13090;53.422;7.670;2023-04-08T21:44:51;11.20;82.40
25108;DHT22;13090;53.422;7.670;2023-04-08T21:49:53;11.10;82.30
25108;DHT22;13090;53.422;7.670;2023-04-08T21:54:55;11.10;82.20
25108;DHT22;13090;53.422;7.670;2023-04-08T21:59:59;11.10;82.90
25108;DHT22;13090;53.422;7.670;2023-04-08T22:05:01;11.10;82.30
25108;DHT22;13090;53.422;7.670;2023-04-08T22:10:04;11.10;81.80
25108;DHT22;13090;53.422;7.670;2023-04-08T22:15:09;11.10;83.60
25108;DHT22;13090;53.422;7.670;2023-04-08T22:20:13;11.00;83.60
25108;DHT22;13090;53.422;7.670;2023-04-08T22:25:15;11.00;83.20
25108;DHT22;13090;53.422;7.670;2023-04-08T22:30:19;10.90;83.40
25108;DHT22;13090;53.422;7.670;2023-04-08T22:35:21;10.90;84.90
25108;DHT22;13090;53.422;7.670;2023-04-08T22:40:23;10.90;84.30
25108;DHT22;13090;53.422;7.670;2023-04-08T22:45:26;10.90;83.30
25108;DHT22;13090;53.422;7.670;2023-04-08T22:50:28;10.90;82.80
25108;DHT22;13090;53.422;7.670;2023-04-08T22:55:31;11.00;82.90
25108;DHT22;13090;53.422;7.670;2023-04-08T23:00:34;11.00;82.80
25108;DHT22;13090;53.422;7.670;2023-04-08T23:05:36;11.00;83.60
25108;DHT22;13090;53.422;7.670;2023-04-08T23:10:39;11.00;83.00
25108;DHT22;13090;53.422;7.670;2023-04-08T23:15:42;11.10;82.60
25108;DHT22;13090;53.422;7.670;2023-04-08T23:20:50;11.10;83.00
25108;DHT22;13090;53.422;7.670;2023-04-08T23:25:52;11.10;82.80
25108;DHT22;13090;53.422;7.670;2023-04-08T23:30:58;11.10;82.50
25108;DHT22;13090;53.422;7.670;2023-04-08T23:36:06;11.20;82.30
25108;DHT22;13090;53.422;7.670;2023-04-08T23:41:08;11.20;82.30
25108;DHT22;13090;53.422;7.670;2023-04-08T23:46:12;11.30;82.00
25108;DHT22;13090;53.422;7.670;2023-04-08T23:51:14;11.30;81.80
25108;DHT22;13090;53.422;7.670;2023-04-08T23:56:16;11.40;81.70
